createdAt,value
2017-12-30T00:00:46.903Z,3.30
2017-12-30T00:03:15.137Z,3.35
2017-12-30T00:05:43.451Z,2.75
2017-12-30T00:08:11.735Z,2.70
2017-12-30T00:10:40.002Z,3.20
2017-12-30T00:13:08.231Z,4.70
2017-12-30T00:15:36.498Z,3.10
2017-12-30T00:18:04.723Z,3.17
2017-12-30T00:20:32.991Z,3.00
2017-12-30T00:23:02.075Z,3.40
2017-12-30T00:25:30.391Z,4.62
2017-12-30T00:27:58.679Z,3.30
2017-12-30T00:30:26.934Z,3.03
2017-12-30T00:32:55.187Z,3.10
2017-12-30T00:35:23.486Z,3.00
2017-12-30T00:37:52.190Z,3.35
2017-12-30T00:40:20.446Z,3.20
2017-12-30T00:42:48.739Z,3.65
2017-12-30T00:45:16.975Z,2.62
2017-12-30T00:47:45.223Z,3.67
2017-12-30T00:50:13.476Z,5.00
2017-12-30T00:52:41.757Z,3.00
2017-12-30T00:55:10.036Z,3.10
2017-12-30T00:57:38.292Z,3.47
2017-12-30T01:00:06.556Z,2.90
2017-12-30T01:02:34.801Z,2.53
2017-12-30T01:05:03.039Z,2.55
2017-12-30T01:07:31.325Z,3.45
2017-12-30T01:09:59.598Z,3.40
2017-12-30T01:12:27.841Z,3.33
2017-12-30T01:14:56.100Z,3.17
2017-12-30T01:17:25.103Z,3.20
2017-12-30T01:19:53.359Z,3.12
2017-12-30T01:22:21.589Z,3.30
2017-12-30T01:24:49.879Z,2.97
2017-12-30T01:27:18.907Z,3.42
2017-12-30T01:29:47.161Z,2.80
2017-12-30T01:32:15.523Z,2.90
2017-12-30T01:34:44.546Z,3.28
2017-12-30T01:37:12.872Z,3.03
2017-12-30T01:39:41.108Z,3.58
2017-12-30T01:42:09.375Z,3.10
2017-12-30T01:44:37.659Z,2.90
2017-12-30T01:47:05.926Z,3.12
2017-12-30T01:49:34.939Z,3.65
2017-12-30T01:52:03.259Z,3.22
2017-12-30T01:54:32.302Z,3.28
2017-12-30T01:57:00.552Z,3.33
2017-12-30T01:59:28.906Z,3.03
2017-12-30T02:01:58.049Z,4.70
2017-12-30T02:04:26.415Z,3.15
2017-12-30T02:06:55.308Z,3.83
2017-12-30T02:09:23.619Z,3.42
2017-12-30T02:11:52.750Z,3.47
2017-12-30T02:14:20.983Z,3.00
2017-12-30T02:16:49.287Z,3.22
2017-12-30T02:19:18.441Z,3.10
2017-12-30T02:21:46.780Z,3.65
2017-12-30T02:24:15.132Z,2.95
2017-12-30T02:26:43.487Z,3.25
2017-12-30T02:29:11.746Z,4.18
2017-12-30T02:31:40.099Z,3.75
2017-12-30T02:34:08.458Z,3.10
2017-12-30T02:36:36.786Z,3.40
2017-12-30T02:39:05.974Z,5.00
2017-12-30T02:41:34.259Z,3.62
2017-12-30T02:44:02.637Z,4.00
2017-12-30T02:46:30.975Z,3.62
2017-12-30T02:48:59.288Z,3.80
2017-12-30T02:51:27.569Z,3.58
2017-12-30T02:53:56.214Z,4.05
2017-12-30T02:56:24.528Z,3.53
2017-12-30T02:58:52.799Z,3.42
2017-12-30T03:01:21.070Z,3.62
2017-12-30T03:03:49.316Z,4.50
2017-12-30T03:06:17.681Z,3.72
2017-12-30T03:08:45.933Z,3.55
2017-12-30T03:11:15.062Z,4.20
2017-12-30T03:13:43.277Z,3.60
2017-12-30T03:16:11.502Z,3.80
2017-12-30T03:18:41.005Z,3.42
2017-12-30T03:21:09.394Z,3.67
2017-12-30T03:23:37.665Z,4.60
2017-12-30T03:26:05.947Z,3.92
2017-12-30T03:32:09.941Z,4.10
2017-12-30T03:34:38.277Z,4.85
2017-12-30T03:37:06.652Z,4.15
2017-12-30T03:39:34.945Z,4.72
2017-12-30T03:42:03.213Z,5.35
2017-12-30T03:44:31.457Z,4.93
2017-12-30T03:47:00.509Z,4.60
2017-12-30T03:49:28.904Z,4.90
2017-12-30T03:52:08.514Z,4.78
2017-12-30T03:54:37.166Z,4.05
2017-12-30T03:57:05.742Z,4.55
2017-12-30T04:02:10.015Z,5.18
2017-12-30T04:04:44.159Z,6.28
2017-12-30T04:10:12.940Z,5.50
2017-12-30T04:12:44.218Z,5.30
2017-12-30T04:15:13.233Z,5.00
2017-12-30T04:17:41.639Z,5.03
2017-12-30T04:20:10.660Z,5.47
2017-12-30T04:22:39.781Z,5.15
2017-12-30T04:25:09.949Z,5.15
2017-12-30T04:27:42.006Z,5.53
2017-12-30T04:30:10.676Z,5.85
2017-12-30T04:32:40.861Z,5.62
2017-12-30T04:35:12.227Z,6.22
2017-12-30T04:37:40.746Z,6.32
2017-12-30T04:40:20.858Z,4.95
2017-12-30T04:42:57.639Z,5.30
2017-12-30T04:45:37.920Z,4.95
2017-12-30T04:48:24.746Z,4.90
2017-12-30T04:50:59.337Z,5.47
2017-12-30T04:53:38.335Z,7.28
2017-12-30T04:56:15.910Z,5.20
2017-12-30T05:02:07.620Z,4.60
2017-12-30T05:04:48.951Z,6.10
2017-12-30T05:10:21.339Z,7.22
2017-12-30T05:12:51.896Z,5.03
2017-12-30T05:15:26.615Z,5.57
2017-12-30T05:17:56.827Z,5.40
2017-12-30T05:20:27.414Z,5.37
2017-12-30T05:22:57.289Z,5.43
2017-12-30T05:25:26.220Z,6.47
2017-12-30T05:27:55.684Z,7.03
2017-12-30T05:30:24.062Z,4.85
2017-12-30T05:32:52.478Z,5.50
2017-12-30T05:35:20.841Z,8.60
2017-12-30T05:37:49.457Z,7.40
2017-12-30T05:40:19.948Z,6.10
2017-12-30T05:42:48.341Z,5.12
2017-12-30T05:45:17.661Z,7.03
2017-12-30T05:47:46.128Z,7.40
2017-12-30T05:50:15.434Z,6.72
2017-12-30T05:52:45.445Z,6.97
2017-12-30T05:55:14.625Z,7.68
2017-12-30T05:57:43.143Z,5.72
2017-12-30T06:00:12.249Z,6.57
2017-12-30T06:02:41.453Z,5.82
2017-12-30T06:05:10.912Z,7.55
2017-12-30T06:07:39.165Z,7.30
2017-12-30T06:10:07.386Z,5.28
2017-12-30T06:12:35.645Z,8.70
2017-12-30T06:15:03.905Z,5.93
2017-12-30T06:17:32.138Z,7.45
2017-12-30T06:20:01.154Z,4.50
2017-12-30T06:22:29.445Z,8.38
2017-12-30T06:24:57.703Z,9.18
2017-12-30T06:27:25.958Z,5.93
2017-12-30T06:29:54.175Z,5.80
2017-12-30T06:32:22.411Z,9.15
2017-12-30T06:34:50.641Z,7.57
2017-12-30T06:37:18.871Z,6.00
2017-12-30T06:39:47.983Z,5.85
2017-12-30T06:42:16.207Z,7.53
2017-12-30T06:44:45.232Z,8.07
2017-12-30T06:47:13.518Z,10.55
2017-12-30T06:49:41.774Z,8.90
2017-12-30T06:52:10.034Z,5.80
2017-12-30T06:54:39.075Z,6.05
2017-12-30T06:57:07.301Z,8.38
2017-12-30T06:59:36.274Z,6.75
2017-12-30T07:02:04.490Z,6.47
2017-12-30T07:04:32.746Z,8.23
2017-12-30T07:07:00.984Z,7.68
2017-12-30T07:09:29.259Z,7.05
2017-12-30T07:11:57.513Z,11.23
2017-12-30T07:14:25.812Z,8.93
2017-12-30T07:16:54.062Z,6.18
2017-12-30T07:19:22.363Z,8.60
2017-12-30T07:21:50.906Z,8.00
2017-12-30T07:24:19.919Z,6.15
2017-12-30T07:26:48.221Z,6.60
2017-12-30T07:29:17.239Z,9.73
2017-12-30T07:31:45.454Z,7.30
2017-12-30T07:34:13.661Z,7.87
2017-12-30T07:36:41.876Z,9.68
2017-12-30T07:39:10.176Z,9.57
2017-12-30T07:41:38.427Z,8.02
2017-12-30T07:44:06.673Z,9.73
2017-12-30T07:46:35.694Z,9.43
2017-12-30T07:49:03.962Z,10.70
2017-12-30T07:51:32.250Z,7.15
2017-12-30T07:54:00.467Z,5.60
2017-12-30T07:56:28.704Z,7.65
2017-12-30T07:58:56.930Z,8.02
2017-12-30T08:01:26.913Z,9.32
2017-12-30T08:03:55.118Z,5.62
2017-12-30T08:06:23.351Z,10.82
2017-12-30T08:08:51.594Z,8.63
2017-12-30T08:11:19.813Z,6.37
2017-12-30T08:13:48.039Z,7.22
2017-12-30T08:16:16.290Z,7.50
2017-12-30T08:18:44.540Z,7.05
2017-12-30T08:21:12.897Z,11.27
2017-12-30T08:23:41.144Z,10.40
2017-12-30T08:26:09.362Z,7.97
2017-12-30T08:28:37.576Z,6.55
2017-12-30T08:31:06.586Z,10.73
2017-12-30T08:33:34.796Z,9.63
2017-12-30T08:36:03.049Z,7.85
2017-12-30T08:38:31.275Z,7.10
2017-12-30T08:40:59.487Z,7.65
2017-12-30T08:43:27.752Z,10.38
2017-12-30T08:45:56.822Z,10.43
2017-12-30T08:48:25.067Z,6.62
2017-12-30T08:50:53.318Z,8.40
2017-12-30T08:53:21.526Z,5.78
2017-12-30T08:55:49.758Z,7.35
2017-12-30T08:58:18.012Z,6.70
2017-12-30T09:00:47.005Z,6.85
2017-12-30T09:03:15.236Z,6.87
2017-12-30T09:05:43.478Z,7.47
2017-12-30T09:08:11.828Z,7.35
2017-12-30T09:10:40.850Z,6.15
2017-12-30T09:13:09.147Z,7.62
2017-12-30T09:15:37.830Z,8.32
2017-12-30T09:18:06.085Z,7.15
2017-12-30T09:20:35.384Z,8.43
2017-12-30T09:23:03.619Z,7.85
2017-12-30T09:25:33.159Z,7.32
2017-12-30T09:28:02.230Z,6.10
2017-12-30T09:30:32.172Z,6.20
2017-12-30T09:33:01.262Z,9.35
2017-12-30T09:35:30.485Z,5.87
2017-12-30T09:37:58.726Z,8.18
2017-12-30T09:40:29.424Z,9.75
2017-12-30T09:42:58.402Z,5.78
2017-12-30T09:45:27.283Z,6.35
2017-12-30T09:47:55.478Z,4.85
2017-12-30T09:50:24.671Z,6.37
2017-12-30T09:52:52.920Z,4.68
2017-12-30T09:55:21.145Z,5.82
2017-12-30T09:57:50.160Z,10.25
2017-12-30T10:00:18.392Z,9.45
2017-12-30T10:02:46.719Z,7.07
2017-12-30T10:05:14.976Z,7.35
2017-12-30T10:07:43.942Z,5.50
2017-12-30T10:10:13.948Z,4.82
2017-12-30T10:12:42.282Z,6.20
2017-12-30T10:15:10.548Z,5.78
2017-12-30T10:17:39.660Z,8.23
2017-12-30T10:20:07.959Z,9.73
2017-12-30T10:22:37.270Z,5.53
2017-12-30T10:25:06.398Z,5.45
2017-12-30T10:27:34.654Z,8.45
2017-12-30T10:30:03.630Z,5.78
2017-12-30T10:32:32.548Z,7.32
2017-12-30T10:35:01.538Z,6.25
2017-12-30T10:37:29.766Z,6.75
2017-12-30T10:39:58.168Z,4.53
2017-12-30T10:42:28.301Z,5.85
2017-12-30T10:44:56.571Z,7.25
2017-12-30T10:47:26.510Z,6.30
2017-12-30T10:49:54.862Z,7.43
2017-12-30T10:52:23.960Z,4.95
2017-12-30T10:54:53.151Z,5.50
2017-12-30T10:57:21.424Z,6.15
2017-12-30T10:59:50.685Z,7.37
2017-12-30T11:02:18.922Z,6.65
2017-12-30T11:04:47.496Z,6.22
2017-12-30T11:07:15.749Z,4.65
2017-12-30T11:09:43.981Z,6.72
2017-12-30T11:12:12.983Z,5.40
2017-12-30T11:14:42.265Z,5.80
2017-12-30T11:17:10.570Z,5.40
2017-12-30T11:19:38.843Z,6.90
2017-12-30T11:22:09.619Z,8.55
2017-12-30T11:24:39.172Z,6.05
2017-12-30T11:27:07.411Z,5.12
2017-12-30T11:29:35.618Z,6.55
2017-12-30T11:32:03.840Z,6.10
2017-12-30T11:34:32.841Z,5.00
2017-12-30T11:37:01.910Z,5.28
2017-12-30T11:39:30.249Z,5.37
2017-12-30T11:41:58.466Z,4.22
2017-12-30T11:44:27.482Z,3.85
2017-12-30T11:46:55.698Z,5.70
2017-12-30T11:49:23.898Z,5.45
2017-12-30T11:51:52.176Z,3.58
2017-12-30T11:54:20.395Z,4.85
2017-12-30T11:56:48.673Z,3.28
2017-12-30T11:59:16.880Z,4.05
2017-12-30T12:01:45.155Z,3.90
2017-12-30T12:04:13.538Z,4.03
2017-12-30T12:06:41.798Z,5.28
2017-12-30T12:09:10.073Z,3.30
2017-12-30T12:11:38.302Z,3.10
2017-12-30T12:14:07.269Z,4.37
2017-12-30T12:16:35.493Z,5.15
2017-12-30T12:19:03.734Z,3.28
2017-12-30T12:21:32.734Z,3.78
2017-12-30T12:24:01.739Z,5.60
2017-12-30T12:26:30.024Z,2.72
2017-12-30T12:28:58.835Z,4.18
2017-12-30T12:31:27.056Z,4.57
2017-12-30T12:33:56.195Z,3.53
2017-12-30T12:36:24.423Z,2.12
2017-12-30T12:38:52.733Z,2.45
2017-12-30T12:41:21.152Z,2.90
2017-12-30T12:43:49.410Z,2.35
2017-12-30T12:46:17.699Z,4.05
2017-12-30T12:48:46.462Z,2.55
2017-12-30T12:51:15.499Z,3.28
2017-12-30T12:53:43.728Z,3.08
2017-12-30T12:56:11.979Z,2.15
2017-12-30T12:58:44.065Z,3.50
2017-12-30T13:01:12.412Z,2.85
2017-12-30T13:03:40.777Z,3.78
2017-12-30T13:06:09.041Z,4.32
2017-12-30T13:08:38.142Z,2.55
2017-12-30T13:11:07.216Z,2.60
2017-12-30T13:13:35.484Z,1.95
2017-12-30T13:16:03.787Z,2.50
2017-12-30T13:18:32.930Z,2.33
2017-12-30T13:21:01.199Z,3.35
2017-12-30T13:23:29.561Z,3.87
2017-12-30T13:26:01.208Z,2.17
2017-12-30T13:28:29.759Z,3.25
2017-12-30T13:30:58.148Z,1.85
2017-12-30T13:33:26.421Z,2.60
2017-12-30T13:35:55.499Z,3.25
2017-12-30T13:38:23.812Z,3.10
2017-12-30T13:40:52.087Z,3.37
2017-12-30T13:43:20.393Z,2.83
2017-12-30T13:45:49.417Z,2.65
2017-12-30T13:48:17.818Z,3.70
2017-12-30T13:50:46.922Z,2.05
2017-12-30T13:53:16.079Z,2.25
2017-12-30T13:55:44.358Z,2.37
2017-12-30T14:00:47.172Z,2.22
2017-12-30T14:03:15.533Z,2.10
2017-12-30T14:05:43.863Z,2.15
2017-12-30T14:08:12.101Z,1.80
2017-12-30T14:10:40.363Z,2.75
2017-12-30T14:13:08.626Z,1.70
2017-12-30T14:15:36.891Z,2.20
2017-12-30T14:18:05.115Z,2.20
2017-12-30T14:20:34.135Z,2.20
2017-12-30T14:23:02.453Z,2.10
2017-12-30T14:25:30.894Z,1.52
2017-12-30T14:27:59.954Z,1.95
2017-12-30T14:30:28.978Z,2.05
2017-12-30T14:32:57.259Z,1.90
2017-12-30T14:35:25.512Z,2.15
2017-12-30T14:37:53.857Z,2.58
2017-12-30T14:40:22.260Z,1.65
2017-12-30T14:42:50.520Z,1.77
2017-12-30T14:45:18.833Z,2.05
2017-12-30T14:47:47.100Z,2.05
2017-12-30T14:50:15.378Z,1.90
2017-12-30T14:52:43.683Z,1.40
2017-12-30T14:55:12.093Z,1.70
2017-12-30T14:57:40.354Z,1.75
2017-12-30T15:00:08.972Z,1.83
2017-12-30T15:02:37.980Z,1.60
2017-12-30T15:05:06.339Z,1.30
2017-12-30T15:07:34.683Z,1.70
2017-12-30T15:10:03.101Z,1.87
2017-12-30T15:12:31.573Z,1.92
2017-12-30T15:15:00.337Z,1.70
2017-12-30T15:17:28.759Z,2.28
2017-12-30T15:19:57.203Z,1.80
2017-12-30T15:22:26.277Z,1.40
2017-12-30T15:24:54.662Z,1.48
2017-12-30T15:27:23.691Z,1.90
2017-12-30T15:29:52.683Z,1.30
2017-12-30T15:32:21.691Z,1.40
2017-12-30T15:34:49.988Z,1.62
2017-12-30T15:37:18.227Z,2.05
2017-12-30T15:39:47.625Z,1.85
2017-12-30T15:42:16.672Z,1.50
2017-12-30T15:44:45.019Z,2.17
2017-12-30T15:47:13.279Z,1.80
2017-12-30T15:49:41.529Z,2.42
2017-12-30T15:52:10.529Z,2.17
2017-12-30T15:54:39.614Z,2.50
2017-12-30T15:57:07.831Z,1.90
2017-12-30T15:59:36.192Z,2.15
2017-12-30T16:02:04.470Z,2.10
2017-12-30T16:04:32.720Z,2.47
2017-12-30T16:07:00.967Z,1.87
2017-12-30T16:09:29.239Z,1.70
2017-12-30T16:11:57.535Z,2.12
2017-12-30T16:14:25.770Z,2.08
2017-12-30T16:16:54.012Z,3.75
2017-12-30T16:19:22.291Z,2.35
2017-12-30T16:21:50.555Z,3.37
2017-12-30T16:24:19.548Z,1.83
2017-12-30T16:26:48.597Z,2.10
2017-12-30T16:29:16.920Z,2.60
2017-12-30T16:31:45.861Z,2.25
2017-12-30T16:34:14.328Z,2.40
2017-12-30T16:36:42.575Z,2.67
2017-12-30T16:39:10.812Z,3.05
2017-12-30T16:41:39.109Z,3.08
2017-12-30T16:44:08.180Z,2.90
2017-12-30T16:46:36.395Z,2.58
2017-12-30T16:49:04.654Z,4.25
2017-12-30T16:51:33.375Z,3.03
2017-12-30T16:54:01.599Z,2.87
2017-12-30T16:56:29.836Z,2.47
2017-12-30T16:58:58.091Z,2.92
2017-12-30T17:01:26.272Z,2.33
2017-12-30T17:03:54.516Z,3.35
2017-12-30T17:06:24.393Z,3.20
2017-12-30T17:08:52.647Z,2.85
2017-12-30T17:11:20.900Z,2.67
2017-12-30T17:13:49.167Z,3.00
2017-12-30T17:16:17.409Z,4.47
2017-12-30T17:18:45.647Z,2.67
2017-12-30T17:21:14.589Z,2.58
2017-12-30T17:23:43.620Z,1.98
2017-12-30T17:26:11.893Z,5.20
2017-12-30T17:28:40.171Z,4.97
2017-12-30T17:31:08.409Z,2.28
2017-12-30T17:33:37.385Z,2.62
2017-12-30T17:36:06.481Z,4.70
2017-12-30T17:38:34.720Z,2.33
2017-12-30T17:41:03.006Z,2.75
2017-12-30T17:43:32.162Z,2.75
2017-12-30T17:46:00.509Z,2.05
2017-12-30T17:48:28.759Z,2.15
2017-12-30T17:50:56.993Z,2.50
2017-12-30T17:53:25.245Z,2.10
2017-12-30T17:55:53.490Z,2.20
2017-12-30T17:58:21.740Z,2.47
2017-12-30T18:00:50.030Z,2.15
2017-12-30T18:03:18.273Z,2.20
2017-12-30T18:05:46.489Z,3.05
2017-12-30T18:08:14.850Z,2.00
2017-12-30T18:10:43.280Z,2.58
2017-12-30T18:13:11.538Z,2.92
2017-12-30T18:15:40.592Z,3.00
2017-12-30T18:18:08.969Z,2.33
2017-12-30T18:20:37.264Z,2.55
2017-12-30T18:23:05.515Z,2.55
2017-12-30T18:25:33.777Z,2.47
2017-12-30T18:28:01.976Z,2.90
2017-12-30T18:30:30.238Z,2.80
2017-12-30T18:32:58.496Z,3.17
2017-12-30T18:35:27.502Z,4.22
2017-12-30T18:37:55.729Z,2.55
2017-12-30T18:40:24.885Z,3.42
2017-12-30T18:42:53.193Z,7.78
2017-12-30T18:45:21.510Z,3.75
2017-12-30T18:47:49.778Z,3.62
2017-12-30T18:50:18.132Z,2.20
2017-12-30T18:52:48.107Z,2.50
2017-12-30T18:55:16.408Z,3.35
2017-12-30T18:57:44.725Z,6.25
2017-12-30T19:00:12.987Z,2.60
2017-12-30T19:02:41.226Z,3.33
2017-12-30T19:05:09.479Z,3.25
2017-12-30T19:07:37.720Z,3.28
2017-12-30T19:10:05.966Z,5.40
2017-12-30T19:12:34.246Z,3.15
2017-12-30T19:15:03.291Z,3.17
2017-12-30T19:17:31.601Z,3.87
2017-12-30T19:19:59.852Z,2.53
2017-12-30T19:22:28.104Z,4.82
2017-12-30T19:24:56.428Z,2.72
2017-12-30T19:27:24.732Z,4.25
2017-12-30T19:29:52.968Z,4.50
2017-12-30T19:32:21.307Z,6.93
2017-12-30T19:34:49.895Z,8.30
2017-12-30T19:37:18.151Z,6.87
2017-12-30T19:39:49.980Z,4.60
2017-12-30T19:42:19.085Z,3.70
2017-12-30T19:44:47.402Z,2.75
2017-12-30T19:47:15.708Z,3.42
2017-12-30T19:49:44.450Z,4.60
2017-12-30T19:52:12.743Z,3.12
2017-12-30T19:54:41.018Z,3.75
2017-12-30T19:57:09.434Z,2.35
2017-12-30T19:59:37.946Z,3.58
2017-12-30T20:02:06.177Z,3.40
2017-12-30T20:04:35.453Z,6.35
2017-12-30T20:07:05.031Z,2.72
2017-12-30T20:09:33.286Z,8.55
2017-12-30T20:12:01.757Z,4.62
2017-12-30T20:14:30.911Z,7.35
2017-12-30T20:16:59.169Z,6.15
2017-12-30T20:19:27.455Z,3.28
2017-12-30T20:21:55.678Z,3.15
2017-12-30T20:24:23.950Z,2.80
2017-12-30T20:26:52.991Z,3.65
2017-12-30T20:29:21.331Z,4.25
2017-12-30T20:31:50.370Z,3.60
2017-12-30T20:34:18.629Z,3.10
2017-12-30T20:36:46.899Z,3.80
2017-12-30T20:39:15.302Z,4.95
2017-12-30T20:41:43.903Z,2.70
2017-12-30T20:44:12.307Z,4.70
2017-12-30T20:46:41.358Z,4.45
2017-12-30T20:49:09.590Z,2.05
2017-12-30T20:51:37.809Z,4.62
2017-12-30T20:54:06.057Z,3.03
2017-12-30T20:56:34.270Z,4.25
2017-12-30T20:59:02.522Z,4.90
2017-12-30T21:01:30.856Z,3.22
2017-12-30T21:03:59.126Z,2.60
2017-12-30T21:06:27.404Z,4.87
2017-12-30T21:08:56.496Z,4.32
2017-12-30T21:11:24.769Z,3.33
2017-12-30T21:13:53.800Z,2.50
2017-12-30T21:16:22.863Z,3.78
2017-12-30T21:18:51.933Z,2.92
2017-12-30T21:21:20.213Z,3.97
2017-12-30T21:23:49.290Z,7.45
2017-12-30T21:26:19.790Z,4.35
2017-12-30T21:28:48.137Z,3.83
2017-12-30T21:31:17.523Z,6.32
2017-12-30T21:33:47.658Z,1.95
2017-12-30T21:36:15.928Z,5.20
2017-12-30T21:38:44.998Z,4.00
2017-12-30T21:41:14.127Z,4.10
2017-12-30T21:43:42.415Z,3.33
2017-12-30T21:46:10.750Z,4.00
2017-12-30T21:48:39.875Z,3.15
2017-12-30T21:51:08.220Z,3.67
2017-12-30T21:53:36.511Z,3.00
2017-12-30T21:56:05.569Z,2.80
2017-12-30T21:58:33.855Z,6.10
2017-12-30T22:01:03.194Z,5.32
2017-12-30T22:03:31.565Z,4.00
2017-12-30T22:05:59.819Z,7.93
2017-12-30T22:08:28.270Z,6.55
2017-12-30T22:10:56.514Z,7.53
2017-12-30T22:13:24.729Z,3.60
2017-12-30T22:15:52.955Z,3.62
2017-12-30T22:18:21.190Z,6.07
2017-12-30T22:20:49.538Z,5.90
2017-12-30T22:23:19.370Z,5.57
2017-12-30T22:25:47.682Z,3.90
2017-12-30T22:28:16.057Z,5.82
2017-12-30T22:30:45.039Z,6.70
2017-12-30T22:33:13.691Z,5.20
2017-12-30T22:35:42.991Z,6.78
2017-12-30T22:38:11.211Z,5.10
2017-12-30T22:40:41.080Z,10.77
2017-12-30T22:43:09.869Z,6.97
2017-12-30T22:45:38.099Z,8.52
2017-12-30T22:48:06.381Z,7.90
2017-12-30T22:50:38.938Z,6.62
2017-12-30T22:53:07.939Z,5.78
2017-12-30T22:55:36.195Z,7.28
2017-12-30T22:58:04.450Z,7.15
2017-12-30T23:03:37.246Z,6.03
2017-12-30T23:06:05.501Z,8.40
2017-12-30T23:08:33.781Z,6.70
2017-12-30T23:11:02.026Z,8.10
2017-12-30T23:13:31.081Z,5.47
2017-12-30T23:15:59.380Z,4.18
2017-12-30T23:18:27.669Z,5.00
2017-12-30T23:20:56.018Z,5.93
2017-12-30T23:23:25.046Z,10.65
2017-12-30T23:25:53.416Z,4.47
2017-12-30T23:28:21.650Z,6.62
2017-12-30T23:30:50.691Z,11.80
2017-12-30T23:33:18.918Z,5.57
2017-12-30T23:35:47.951Z,9.10
2017-12-30T23:38:16.238Z,5.95
2017-12-30T23:40:44.544Z,9.73
2017-12-30T23:43:12.866Z,8.38
2017-12-30T23:45:41.104Z,10.95
2017-12-30T23:48:09.348Z,5.00
2017-12-30T23:50:37.553Z,5.22
2017-12-30T23:53:05.809Z,5.45
2017-12-30T23:55:34.069Z,6.43
2017-12-30T23:58:02.346Z,7.30
